createdAt,value
2018-10-16T00:00:36.356Z,16.08
2018-10-16T00:01:36.270Z,16.11
2018-10-16T00:02:36.137Z,16.14
2018-10-16T00:03:36.194Z,16.08
2018-10-16T00:04:35.972Z,16.25
2018-10-16T00:05:36.011Z,16.16
2018-10-16T00:06:35.834Z,16.18
2018-10-16T00:07:35.797Z,16.13
2018-10-16T00:08:35.651Z,16.10
2018-10-16T00:11:17.978Z,15.80
2018-10-16T00:12:19.750Z,15.76
2018-10-16T00:13:17.733Z,15.67
2018-10-16T00:14:19.972Z,15.51
2018-10-16T00:15:17.613Z,15.49
2018-10-16T00:16:17.912Z,15.49
2018-10-16T00:17:17.585Z,15.43
2018-10-16T00:20:03.428Z,15.38
2018-10-16T00:21:03.452Z,15.35
2018-10-16T00:22:03.292Z,15.25
2018-10-16T00:24:45.451Z,15.23
2018-10-16T00:27:27.439Z,15.07
2018-10-16T00:28:27.441Z,15.01
2018-10-16T00:29:27.280Z,14.97
2018-10-16T00:30:27.241Z,14.97
2018-10-16T00:31:27.104Z,14.97
2018-10-16T00:34:08.903Z,14.95
2018-10-16T00:35:08.944Z,14.98
2018-10-16T00:36:08.766Z,15.04
2018-10-16T00:38:50.992Z,14.95
2018-10-16T00:41:32.927Z,14.82
2018-10-16T00:42:33.883Z,14.90
2018-10-16T00:43:32.738Z,14.98
2018-10-16T00:46:14.906Z,15.38
2018-10-16T00:47:14.856Z,15.70
2018-10-16T00:48:14.772Z,15.76
2018-10-16T00:49:14.778Z,15.73
2018-10-16T00:50:14.579Z,15.76
2018-10-16T00:51:14.595Z,15.71
2018-10-16T00:52:14.424Z,15.70
2018-10-16T00:53:14.418Z,15.66
2018-10-16T00:54:14.262Z,15.59
2018-10-16T00:56:56.414Z,15.49
2018-10-16T00:57:56.439Z,15.49
2018-10-16T00:58:56.237Z,15.51
2018-10-16T00:59:56.209Z,15.48
2018-10-16T01:00:56.081Z,15.56
2018-10-16T01:01:56.111Z,15.59
2018-10-16T01:02:55.940Z,15.60
2018-10-16T01:03:55.920Z,15.56
2018-10-16T01:04:55.753Z,15.46
2018-10-16T01:05:55.734Z,15.44
2018-10-16T01:06:55.625Z,15.38
2018-10-16T01:07:55.710Z,15.44
2018-10-16T01:08:55.432Z,15.35
2018-10-16T01:09:55.465Z,15.53
2018-10-16T01:10:55.275Z,15.43
2018-10-16T01:13:37.446Z,15.37
2018-10-16T01:14:37.360Z,15.35
2018-10-16T01:15:37.247Z,15.38
2018-10-16T01:18:19.410Z,15.27
2018-10-16T01:19:19.399Z,15.25
2018-10-16T01:20:19.252Z,15.34
2018-10-16T01:21:19.278Z,15.35
2018-10-16T01:22:19.081Z,15.31
2018-10-16T01:23:20.149Z,15.38
2018-10-16T01:24:18.933Z,15.35
2018-10-16T01:25:18.903Z,15.30
2018-10-16T01:26:18.761Z,15.38
2018-10-16T01:27:18.715Z,15.37
2018-10-16T01:28:18.637Z,15.35
2018-10-16T01:29:18.657Z,15.23
2018-10-16T01:30:18.495Z,15.15
2018-10-16T01:31:18.431Z,15.13
2018-10-16T01:32:18.280Z,15.03
2018-10-16T01:33:18.255Z,14.93
2018-10-16T01:34:18.112Z,14.91
2018-10-16T01:35:18.091Z,14.90
2018-10-16T01:36:17.943Z,14.93
2018-10-16T01:37:17.960Z,14.83
2018-10-16T01:38:17.784Z,14.78
2018-10-16T01:39:17.757Z,14.90
2018-10-16T01:42:25.928Z,14.72
2018-10-16T01:44:52.438Z,14.74
2018-10-16T01:45:52.417Z,14.72
2018-10-16T01:46:52.251Z,14.75
2018-10-16T01:47:52.262Z,14.79
2018-10-16T01:48:52.090Z,14.91
2018-10-16T01:49:52.139Z,14.79
2018-10-16T01:50:51.932Z,14.80
2018-10-16T01:51:51.947Z,14.79
2018-10-16T01:52:51.790Z,14.93
2018-10-16T01:53:51.752Z,15.00
2018-10-16T01:54:51.607Z,14.97
2018-10-16T01:55:54.668Z,14.97
2018-10-16T01:56:51.451Z,15.03
2018-10-16T01:57:51.501Z,15.09
2018-10-16T01:58:51.272Z,15.03
2018-10-16T01:59:51.285Z,15.15
2018-10-16T02:00:51.123Z,15.11
2018-10-16T02:01:51.131Z,15.19
2018-10-16T02:02:50.972Z,15.20
2018-10-16T02:05:32.927Z,15.15
2018-10-16T02:06:32.925Z,15.07
2018-10-16T02:07:32.762Z,14.97
2018-10-16T02:10:14.945Z,14.75
2018-10-16T02:11:14.916Z,14.80
2018-10-16T02:12:14.794Z,14.80
2018-10-16T02:14:56.979Z,14.79
2018-10-16T02:15:56.927Z,14.82
2018-10-16T02:16:56.776Z,14.69
2018-10-16T02:17:56.729Z,14.48
2018-10-16T02:18:56.596Z,14.35
2018-10-16T02:21:38.424Z,14.12
2018-10-16T02:22:38.475Z,14.05
2018-10-16T02:23:38.271Z,14.05
2018-10-16T02:24:38.237Z,13.99
2018-10-16T02:25:38.109Z,14.06
2018-10-16T02:26:39.098Z,13.96
2018-10-16T02:27:37.967Z,13.91
2018-10-16T02:28:37.955Z,13.94
2018-10-16T02:29:37.773Z,13.96
2018-10-16T02:30:37.770Z,13.93
2018-10-16T02:31:37.616Z,13.88
2018-10-16T02:32:37.596Z,13.90
2018-10-16T02:33:37.453Z,13.86
2018-10-16T02:38:36.425Z,13.75
2018-10-16T02:39:36.250Z,13.81
2018-10-16T02:40:36.193Z,13.63
2018-10-16T02:41:36.090Z,13.63
2018-10-16T02:42:36.149Z,13.63
2018-10-16T02:43:35.922Z,13.72
2018-10-16T02:46:17.932Z,13.59
2018-10-16T02:47:17.910Z,13.59
2018-10-16T02:48:17.789Z,13.55
2018-10-16T03:04:41.031Z,14.31
2018-10-16T03:05:40.969Z,14.30
2018-10-16T03:06:40.845Z,14.38
2018-10-16T03:07:40.889Z,14.42
2018-10-16T03:08:40.706Z,14.53
2018-10-16T03:11:22.957Z,14.66
2018-10-16T03:14:04.934Z,14.67
2018-10-16T03:15:04.923Z,14.64
2018-10-16T03:16:04.779Z,14.63
2018-10-16T03:18:46.944Z,14.67
2018-10-16T03:19:46.936Z,14.67
2018-10-16T03:20:46.780Z,14.69
2018-10-16T03:21:46.814Z,14.79
2018-10-16T03:22:46.609Z,14.74
2018-10-16T03:23:46.614Z,14.66
2018-10-16T03:24:46.471Z,14.63
2018-10-16T03:25:47.481Z,14.69
2018-10-16T03:26:46.288Z,14.61
2018-10-16T03:27:46.237Z,14.59
2018-10-16T03:28:46.124Z,14.60
2018-10-16T03:29:46.417Z,14.52
2018-10-16T03:30:45.965Z,14.63
2018-10-16T03:33:27.954Z,14.56
2018-10-16T03:37:49.945Z,14.46
2018-10-16T03:38:49.946Z,14.46
2018-10-16T03:39:49.791Z,14.46
2018-10-16T03:42:31.949Z,14.42
2018-10-16T03:43:31.909Z,14.46
2018-10-16T03:44:31.794Z,14.48
2018-10-16T03:45:32.771Z,14.42
2018-10-16T03:46:31.615Z,14.39
2018-10-16T03:47:31.653Z,14.36
2018-10-16T03:48:31.454Z,14.41
2018-10-16T03:49:31.430Z,14.39
2018-10-16T03:50:31.304Z,14.30
2018-10-16T03:51:31.278Z,14.35
2018-10-16T03:52:31.149Z,14.27
2018-10-16T03:53:31.151Z,14.24
2018-10-16T03:54:31.058Z,14.23
2018-10-16T03:55:31.064Z,14.24
2018-10-16T03:56:30.952Z,14.26
2018-10-16T03:57:30.775Z,14.30
2018-10-16T03:58:30.640Z,14.27
2018-10-16T03:59:30.683Z,14.24
2018-10-16T04:00:30.599Z,14.26
2018-10-16T04:01:30.552Z,14.27
2018-10-16T04:02:30.383Z,14.30
2018-10-16T04:03:30.299Z,14.26
2018-10-16T04:04:30.174Z,14.38
2018-10-16T04:05:30.106Z,14.26
2018-10-16T04:06:30.060Z,14.26
2018-10-16T04:07:30.021Z,14.21
2018-10-16T04:08:29.824Z,14.23
2018-10-16T04:09:29.832Z,14.23
2018-10-16T04:10:29.669Z,14.24
2018-10-16T04:11:29.663Z,14.27
2018-10-16T04:12:29.523Z,14.21
2018-10-16T04:13:29.487Z,14.24
2018-10-16T04:14:29.344Z,14.24
2018-10-16T04:15:29.383Z,14.41
2018-10-16T04:16:29.168Z,14.30
2018-10-16T04:17:30.229Z,14.41
2018-10-16T04:18:29.105Z,14.52
2018-10-16T04:19:28.962Z,14.46
2018-10-16T04:20:28.879Z,14.48
2018-10-16T04:21:28.906Z,14.46
2018-10-16T04:22:28.729Z,14.56
2018-10-16T04:23:28.691Z,14.53
2018-10-16T04:24:28.515Z,14.59
2018-10-16T04:25:28.496Z,14.64
2018-10-16T04:26:28.371Z,14.48
2018-10-16T04:27:28.345Z,14.34
2018-10-16T04:28:28.216Z,14.30
2018-10-16T04:29:28.223Z,14.31
2018-10-16T04:30:28.040Z,14.21
2018-10-16T04:31:28.030Z,14.12
2018-10-16T04:32:27.894Z,14.16
2018-10-16T04:33:28.083Z,14.19
2018-10-16T04:34:27.710Z,14.06
2018-10-16T04:35:27.754Z,14.23
2018-10-16T04:36:27.560Z,14.11
2018-10-16T04:37:27.562Z,14.11
2018-10-16T04:38:27.397Z,14.04
2018-10-16T04:39:27.372Z,14.08
2018-10-16T04:40:27.208Z,14.09
2018-10-16T04:41:27.189Z,14.02
2018-10-16T04:42:27.082Z,14.06
2018-10-16T04:43:27.126Z,14.06
2018-10-16T04:44:26.896Z,14.06
2018-10-16T04:45:26.891Z,13.99
2018-10-16T04:46:26.731Z,14.08
2018-10-16T04:47:26.705Z,14.08
2018-10-16T04:48:26.605Z,14.08
2018-10-16T04:49:26.548Z,14.06
2018-10-16T04:50:26.399Z,13.94
2018-10-16T04:51:26.419Z,13.94
2018-10-16T04:52:26.237Z,14.02
2018-10-16T04:53:26.277Z,13.98
2018-10-16T04:54:26.096Z,14.06
2018-10-16T04:55:26.045Z,14.11
2018-10-16T04:56:25.908Z,13.96
2018-10-16T04:57:25.940Z,13.90
2018-10-16T04:58:25.760Z,13.91
2018-10-16T04:59:25.781Z,13.94
2018-10-16T05:00:25.579Z,13.94
2018-10-16T05:01:25.558Z,14.06
2018-10-16T05:02:25.428Z,13.94
2018-10-16T05:03:25.367Z,13.94
2018-10-16T05:04:25.285Z,14.01
2018-10-16T05:05:25.286Z,14.06
2018-10-16T05:06:25.099Z,13.98
2018-10-16T05:07:25.092Z,13.99
2018-10-16T05:08:24.923Z,13.99
2018-10-16T05:09:24.929Z,13.90
2018-10-16T05:10:24.769Z,13.93
2018-10-16T05:11:24.814Z,13.93
2018-10-16T05:12:24.606Z,13.96
2018-10-16T05:13:24.620Z,13.98
2018-10-16T05:14:24.472Z,13.98
2018-10-16T05:15:24.425Z,14.05
2018-10-16T05:16:24.273Z,14.04
2018-10-16T05:17:24.230Z,14.06
2018-10-16T05:18:24.121Z,14.06
2018-10-16T05:19:24.191Z,14.01
2018-10-16T05:20:23.956Z,14.06
2018-10-16T05:21:25.021Z,13.99
2018-10-16T05:22:23.800Z,13.96
2018-10-16T05:25:05.995Z,13.93
2018-10-16T05:26:06.005Z,13.94
2018-10-16T05:27:05.811Z,13.96
2018-10-16T05:28:05.779Z,14.05
2018-10-16T05:29:05.642Z,14.06
2018-10-16T05:30:05.737Z,14.19
2018-10-16T05:31:05.555Z,14.08
2018-10-16T05:32:05.496Z,14.09
2018-10-16T05:33:05.332Z,14.20
2018-10-16T05:35:47.513Z,14.23
2018-10-16T05:37:08.391Z,14.16
2018-10-16T05:37:47.323Z,14.19
2018-10-16T05:40:29.507Z,14.19
2018-10-16T05:41:29.448Z,14.11
2018-10-16T05:42:29.348Z,14.04
2018-10-16T05:43:29.337Z,14.17
2018-10-16T05:44:29.146Z,14.05
2018-10-16T05:45:29.133Z,13.99
2018-10-16T05:46:29.017Z,13.93
2018-10-16T05:47:28.948Z,13.94
2018-10-16T05:48:28.828Z,13.96
2018-10-16T05:49:28.752Z,13.87
2018-10-16T05:50:28.673Z,13.88
2018-10-16T05:51:28.607Z,13.71
2018-10-16T05:52:28.506Z,13.76
2018-10-16T05:53:28.434Z,13.80
2018-10-16T05:54:28.394Z,13.98
2018-10-16T05:55:28.265Z,13.84
2018-10-16T05:56:28.180Z,13.96
2018-10-16T05:57:28.139Z,13.91
2018-10-16T05:58:28.179Z,13.94
2018-10-16T06:01:09.983Z,14.02
2018-10-16T06:04:09.406Z,14.17
2018-10-16T06:05:09.343Z,14.17
2018-10-16T06:06:09.252Z,14.17
2018-10-16T06:07:10.177Z,14.17
2018-10-16T06:08:09.132Z,14.16
2018-10-16T06:09:08.999Z,14.16
2018-10-16T06:10:08.927Z,14.09
2018-10-16T06:12:51.026Z,14.12
2018-10-16T06:15:32.993Z,14.19
2018-10-16T06:16:32.913Z,14.12
2018-10-16T06:17:32.820Z,14.19
2018-10-16T06:18:33.780Z,14.21
2018-10-16T06:19:32.661Z,14.17
2018-10-16T06:22:14.521Z,14.31
2018-10-16T06:23:15.433Z,14.24
2018-10-16T06:24:14.386Z,14.31
2018-10-16T06:26:56.490Z,14.35
2018-10-16T06:29:38.510Z,14.41
2018-10-16T06:30:59.386Z,14.48
2018-10-16T06:31:38.330Z,14.46
2018-10-16T06:32:38.251Z,14.42
2018-10-16T06:33:38.195Z,14.49
2018-10-16T06:34:39.151Z,14.49
2018-10-16T06:35:38.008Z,14.45
2018-10-16T06:36:37.941Z,14.52
2018-10-16T06:37:37.858Z,14.52
2018-10-16T06:40:20.009Z,14.34
2018-10-16T06:41:19.970Z,14.45
2018-10-16T06:42:19.842Z,14.38
2018-10-16T06:45:02.024Z,14.35
2018-10-16T06:47:26.631Z,14.45
2018-10-16T06:48:26.691Z,14.41
2018-10-16T06:49:26.354Z,14.39
2018-10-16T06:52:08.505Z,14.64
2018-10-16T06:53:08.428Z,14.61
2018-10-16T06:54:08.354Z,14.64
2018-10-16T06:55:09.349Z,14.63
2018-10-16T06:56:08.239Z,14.69
2018-10-16T06:58:50.529Z,14.72
2018-10-16T06:59:50.249Z,14.64
2018-10-16T07:00:49.912Z,14.66
2018-10-16T07:01:49.787Z,14.67
2018-10-16T07:08:42.796Z,14.72
2018-10-16T07:09:41.584Z,14.72
2018-10-16T07:12:23.536Z,14.86
2018-10-16T07:13:23.433Z,14.87
2018-10-16T07:14:23.341Z,14.87
2018-10-16T07:15:23.266Z,14.91
2018-10-16T07:16:23.204Z,14.91
2018-10-16T07:19:05.008Z,14.90
2018-10-16T07:20:04.956Z,14.90
2018-10-16T07:21:04.886Z,15.01
2018-10-16T07:22:04.804Z,14.97
2018-10-16T07:23:04.677Z,14.95
2018-10-16T07:25:46.511Z,15.27
2018-10-16T07:28:28.534Z,17.00
2018-10-16T07:29:28.441Z,17.46
2018-10-16T07:30:28.380Z,17.68
2018-10-16T07:31:28.296Z,18.42
2018-10-16T07:32:28.195Z,18.46
2018-10-16T07:35:10.000Z,18.89
2018-10-16T07:36:09.944Z,18.75
2018-10-16T07:37:09.880Z,18.86
2018-10-16T07:38:10.926Z,19.32
2018-10-16T07:39:09.686Z,19.61
2018-10-16T07:40:09.620Z,19.98
2018-10-16T07:41:09.568Z,20.19
2018-10-16T07:42:10.463Z,20.57
2018-10-16T07:43:09.375Z,21.06
2018-10-16T07:44:09.309Z,21.22
2018-10-16T07:45:09.226Z,21.49
2018-10-16T07:46:09.167Z,21.38
2018-10-16T07:48:08.969Z,20.69
2018-10-16T07:49:08.869Z,20.81
2018-10-16T07:50:08.818Z,20.30
2018-10-16T07:51:08.719Z,20.61
2018-10-16T07:52:08.681Z,20.22
2018-10-16T07:53:08.565Z,20.64
2018-10-16T08:03:31.855Z,18.64
2018-10-16T08:04:31.695Z,18.36
2018-10-16T08:05:31.671Z,18.01
2018-10-16T08:06:31.590Z,17.70
2018-10-16T08:07:31.461Z,17.65
2018-10-16T08:08:31.444Z,17.51
2018-10-16T08:09:31.351Z,17.63
2018-10-16T08:10:31.199Z,17.73
2018-10-16T08:13:13.107Z,17.46
2018-10-16T08:15:55.097Z,18.60
2018-10-16T08:16:55.045Z,19.01
2018-10-16T08:17:54.880Z,19.64
2018-10-16T08:20:37.050Z,20.78
2018-10-16T08:23:19.066Z,20.98
2018-10-16T08:24:20.078Z,21.21
2018-10-16T08:25:18.903Z,21.53
2018-10-16T08:26:18.836Z,21.52
2018-10-16T08:27:18.813Z,22.44
2018-10-16T08:29:54.197Z,23.06
2018-10-16T08:29:54.769Z,23.25
2018-10-16T08:30:54.644Z,22.79
2018-10-16T08:31:54.570Z,22.69
2018-10-16T08:32:54.938Z,23.00
2018-10-16T08:33:54.517Z,22.59
2018-10-16T08:34:54.322Z,23.59
2018-10-16T08:35:54.254Z,23.99
2018-10-16T08:36:54.288Z,24.14
2018-10-16T08:37:54.085Z,24.37
2018-10-16T08:38:54.061Z,24.24
2018-10-16T08:39:53.953Z,24.67
2018-10-16T08:40:53.859Z,24.94
2018-10-16T08:41:53.925Z,25.05
2018-10-16T08:43:46.709Z,25.36
2018-10-16T08:43:53.656Z,25.49
2018-10-16T08:44:53.688Z,25.81
2018-10-16T08:45:53.443Z,25.53
2018-10-16T08:46:53.395Z,25.45
2018-10-16T08:47:53.300Z,25.61
2018-10-16T08:48:53.272Z,25.04
2018-10-16T08:49:53.191Z,25.35
2018-10-16T08:52:35.077Z,25.20
2018-10-16T08:55:17.069Z,26.17
2018-10-16T08:56:16.981Z,26.36
2018-10-16T08:57:16.894Z,26.21
2018-10-16T08:59:59.108Z,26.73
2018-10-16T09:00:58.996Z,26.76
2018-10-16T09:01:58.903Z,26.90
2018-10-16T09:02:58.819Z,26.79
2018-10-16T09:03:58.741Z,26.56
2018-10-16T09:04:58.693Z,26.94
2018-10-16T09:05:58.613Z,26.84
2018-10-16T09:08:40.557Z,26.49
2018-10-16T09:09:40.485Z,26.78
2018-10-16T09:10:40.392Z,26.90
2018-10-16T09:11:40.363Z,26.71
2018-10-16T09:12:40.241Z,27.13
2018-10-16T09:13:40.186Z,27.16
2018-10-16T09:14:40.094Z,27.15
2018-10-16T09:15:40.036Z,27.46
2018-10-16T09:16:39.987Z,27.53
2018-10-16T09:17:39.885Z,27.25
2018-10-16T09:18:39.818Z,27.46
2018-10-16T09:19:55.702Z,27.65
2018-10-16T09:20:39.672Z,27.45
2018-10-16T09:21:39.629Z,27.42
2018-10-16T09:22:39.525Z,27.77
2018-10-16T09:23:39.472Z,27.55
2018-10-16T09:24:39.446Z,27.84
2018-10-16T09:25:41.369Z,27.96
2018-10-16T09:26:39.254Z,28.30
2018-10-16T09:27:40.194Z,28.52
2018-10-16T09:28:39.087Z,27.95
2018-10-16T09:29:39.049Z,28.02
2018-10-16T09:30:38.982Z,28.48
2018-10-16T09:31:38.901Z,28.52
2018-10-16T09:32:38.833Z,28.50
2018-10-16T09:35:21.082Z,27.06
2018-10-16T09:38:03.383Z,26.75
2018-10-16T09:39:03.503Z,27.06
2018-10-16T09:40:03.263Z,27.52
2018-10-16T09:41:02.865Z,27.98
2018-10-16T09:42:02.769Z,28.51
2018-10-16T09:43:06.212Z,28.21
2018-10-16T09:44:02.644Z,27.98
2018-10-16T09:46:44.548Z,27.83
2018-10-16T09:47:44.528Z,28.11
2018-10-16T09:48:44.417Z,28.48
2018-10-16T09:51:26.551Z,28.01
2018-10-16T09:54:08.587Z,28.35
2018-10-16T09:55:08.513Z,28.70
2018-10-16T09:56:08.424Z,28.50
2018-10-16T09:58:50.580Z,28.74
2018-10-16T09:59:50.537Z,29.14
2018-10-16T10:00:50.468Z,29.35
2018-10-16T10:01:50.363Z,29.44
2018-10-16T10:02:50.291Z,29.66
2018-10-16T10:03:50.242Z,29.76
2018-10-16T10:04:50.160Z,30.04
2018-10-16T10:07:32.071Z,28.87
2018-10-16T10:08:32.030Z,28.95
2018-10-16T10:09:31.921Z,29.07
2018-10-16T10:10:31.866Z,28.94
2018-10-16T10:11:31.798Z,29.39
2018-10-16T10:12:31.716Z,28.51
2018-10-16T10:13:31.701Z,28.05
2018-10-16T10:14:31.604Z,28.62
2018-10-16T10:15:31.512Z,28.94
2018-10-16T10:16:31.450Z,29.33
2018-10-16T10:17:31.374Z,29.71
2018-10-16T10:18:31.301Z,30.40
2018-10-16T10:19:31.303Z,30.38
2018-10-16T10:20:31.168Z,30.59
2018-10-16T10:21:31.100Z,30.29
2018-10-16T10:22:31.036Z,30.26
2018-10-16T10:23:31.005Z,30.11
2018-10-16T10:24:30.911Z,30.07
2018-10-16T10:25:30.823Z,29.89
2018-10-16T10:26:30.750Z,30.28
2018-10-16T10:27:30.683Z,30.25
2018-10-16T10:30:12.607Z,30.38
2018-10-16T10:31:12.517Z,30.68
2018-10-16T10:32:12.463Z,30.45
2018-10-16T10:33:12.384Z,30.46
2018-10-16T10:34:12.293Z,30.76
2018-10-16T10:35:13.266Z,30.82
2018-10-16T10:36:12.192Z,31.32
2018-10-16T10:37:12.119Z,31.41
2018-10-16T10:38:12.020Z,31.52
2018-10-16T10:40:54.118Z,30.97
2018-10-16T10:41:54.025Z,30.96
2018-10-16T10:42:53.952Z,31.05
2018-10-16T10:43:53.887Z,31.35
2018-10-16T10:44:53.845Z,31.31
2018-10-16T10:47:36.111Z,30.72
2018-10-16T10:48:36.046Z,30.86
2018-10-16T10:49:35.971Z,31.19
2018-10-16T10:50:36.285Z,31.74
2018-10-16T10:51:36.122Z,31.18
2018-10-16T10:54:18.093Z,30.45
2018-10-16T10:55:18.094Z,30.70
2018-10-16T10:56:17.974Z,30.96
2018-10-16T10:57:17.974Z,30.94
2018-10-16T10:58:17.815Z,30.45
2018-10-16T10:59:17.749Z,30.25
2018-10-16T11:00:17.672Z,30.38
2018-10-16T11:01:18.673Z,30.57
2018-10-16T11:02:17.538Z,30.49
2018-10-16T11:03:17.551Z,30.60
2018-10-16T16:19:55.513Z,22.29
2018-10-16T16:20:55.293Z,22.20
2018-10-16T16:21:55.280Z,22.17
2018-10-16T16:22:55.159Z,22.14
2018-10-16T16:23:55.137Z,22.05
2018-10-16T16:24:55.069Z,22.02
2018-10-16T16:27:37.138Z,21.90
2018-10-16T16:28:37.267Z,21.85
2018-10-16T16:29:36.996Z,21.81
2018-10-16T16:30:36.993Z,21.66
2018-10-16T16:31:36.834Z,21.66
2018-10-16T16:34:18.923Z,21.40
2018-10-16T16:35:20.950Z,21.36
2018-10-16T16:36:18.486Z,21.37
2018-10-16T16:39:00.646Z,21.26
2018-10-16T16:40:03.841Z,21.12
2018-10-16T16:41:00.482Z,21.09
2018-10-16T16:42:00.611Z,21.03
2018-10-16T16:43:00.324Z,20.98
2018-10-16T16:44:00.379Z,20.96
2018-10-16T16:46:42.729Z,20.76
2018-10-16T16:47:42.586Z,20.87
2018-10-16T16:55:59.181Z,20.63
2018-10-16T16:56:58.952Z,20.63
2018-10-16T16:57:58.909Z,20.58
2018-10-16T16:58:58.839Z,20.58
2018-10-16T16:59:58.722Z,20.50
2018-10-16T17:00:58.648Z,20.46
2018-10-16T17:01:58.575Z,20.44
2018-10-16T17:02:58.476Z,20.46
2018-10-16T17:03:58.461Z,20.38
2018-10-16T17:04:58.309Z,20.37
2018-10-16T17:05:58.267Z,20.42
2018-10-16T17:06:58.136Z,20.31
2018-10-16T17:07:58.113Z,20.26
2018-10-16T17:08:58.004Z,20.23
2018-10-16T17:09:57.937Z,20.22
2018-10-16T17:10:57.999Z,20.22
2018-10-16T17:11:57.848Z,20.27
2018-10-16T17:12:57.706Z,20.30
2018-10-16T17:13:57.638Z,20.20
2018-10-16T17:14:57.522Z,20.23
2018-10-16T17:15:57.549Z,20.12
2018-10-16T17:16:57.355Z,20.12
2018-10-16T17:19:39.635Z,19.94
2018-10-16T17:20:39.580Z,19.90
2018-10-16T17:21:39.516Z,19.80
2018-10-16T17:22:39.420Z,19.85
2018-10-16T17:23:39.335Z,19.85
2018-10-16T17:24:39.348Z,19.83
2018-10-16T17:25:39.513Z,19.83
2018-10-16T17:26:39.141Z,19.72
2018-10-16T17:27:39.024Z,19.72
2018-10-16T17:28:39.008Z,19.62
2018-10-16T17:48:01.279Z,19.57
2018-10-16T17:49:03.618Z,19.55
2018-10-16T17:50:01.080Z,19.55
2018-10-16T17:51:03.434Z,19.55
2018-10-16T17:52:00.928Z,19.49
2018-10-16T17:53:03.511Z,19.50
2018-10-16T17:54:00.757Z,19.55
2018-10-16T17:56:46.663Z,19.70
2018-10-16T17:57:46.712Z,19.60
2018-10-16T17:58:46.725Z,19.55
2018-10-16T17:59:46.493Z,19.61
2018-10-16T18:00:46.363Z,19.62
2018-10-16T18:01:46.305Z,19.50
2018-10-16T18:02:46.195Z,19.53
2018-10-16T18:03:46.227Z,19.46
2018-10-16T18:04:46.070Z,19.30
2018-10-16T18:05:46.025Z,19.31
2018-10-16T18:06:45.872Z,19.30
2018-10-16T18:07:45.833Z,19.24
2018-10-16T18:08:45.712Z,19.25
2018-10-16T18:09:45.653Z,19.23
2018-10-16T18:10:45.534Z,19.24
2018-10-16T18:11:45.600Z,19.16
2018-10-16T18:12:45.387Z,19.13
2018-10-16T18:13:45.369Z,19.17
2018-10-16T18:14:45.277Z,19.20
2018-10-16T18:15:45.271Z,19.05
2018-10-16T18:16:45.074Z,19.05
2018-10-16T18:17:45.084Z,18.99
2018-10-16T18:18:44.920Z,18.93
2018-10-16T18:19:45.008Z,18.90
2018-10-16T18:20:44.749Z,18.90
2018-10-16T18:21:44.826Z,18.84
2018-10-16T18:22:44.584Z,19.02
2018-10-16T18:23:44.779Z,18.84
2018-10-16T18:24:44.452Z,18.83
2018-10-16T18:25:44.450Z,18.86
2018-10-16T18:26:44.276Z,18.82
2018-10-16T18:27:44.213Z,18.75
2018-10-16T18:28:44.106Z,18.76
2018-10-16T18:29:44.169Z,18.86
2018-10-16T18:30:43.997Z,18.79
2018-10-16T18:31:43.938Z,18.84
2018-10-16T18:32:43.794Z,18.83
2018-10-16T18:33:43.753Z,18.69
2018-10-16T18:34:43.635Z,18.79
2018-10-16T18:35:43.692Z,18.87
2018-10-16T18:36:43.473Z,18.87
2018-10-16T18:37:43.508Z,18.84
2018-10-16T18:38:43.304Z,18.87
2018-10-16T18:39:43.353Z,18.83
2018-10-16T18:40:43.269Z,18.69
2018-10-16T18:41:45.338Z,18.64
2018-10-16T18:42:43.000Z,18.62
2018-10-16T18:43:42.991Z,18.54
2018-10-16T18:44:42.835Z,18.41
2018-10-16T18:45:42.839Z,18.39
2018-10-16T18:46:42.696Z,18.31
2018-10-16T18:47:42.590Z,18.29
2018-10-16T18:48:42.650Z,18.34
2018-10-16T18:49:42.431Z,18.28
2018-10-16T18:50:42.402Z,18.21
2018-10-16T18:51:42.363Z,18.32
2018-10-16T18:52:42.203Z,18.38
2018-10-16T18:53:42.148Z,18.38
2018-10-16T18:54:42.031Z,18.39
2018-10-16T18:55:42.041Z,18.42
2018-10-16T18:56:41.910Z,18.31
2018-10-16T18:57:41.861Z,18.32
2018-10-16T18:58:41.707Z,18.28
2018-10-16T18:59:41.668Z,18.41
2018-10-16T19:00:41.573Z,18.54
2018-10-16T19:01:41.605Z,18.51
2018-10-16T19:02:41.395Z,18.64
2018-10-16T19:03:41.378Z,18.56
2018-10-16T19:04:41.234Z,18.51
2018-10-16T19:05:41.227Z,18.50
2018-10-16T19:06:41.108Z,18.54
2018-10-16T19:07:41.272Z,18.41
2018-10-16T19:08:40.905Z,18.38
2018-10-16T19:09:40.914Z,18.47
2018-10-16T19:10:40.736Z,18.28
2018-10-16T19:11:40.740Z,18.32
2018-10-16T19:12:40.621Z,18.32
2018-10-16T19:13:40.673Z,18.31
2018-10-16T19:14:40.438Z,18.26
2018-10-16T19:15:40.484Z,18.49
2018-10-16T19:16:40.258Z,18.59
2018-10-16T19:17:40.287Z,18.59
2018-10-16T19:18:40.121Z,18.74
2018-10-16T19:19:40.084Z,18.69
2018-10-16T19:20:39.951Z,18.68
2018-10-16T19:21:39.976Z,18.66
2018-10-16T19:22:39.781Z,18.66
2018-10-16T19:23:39.817Z,18.71
2018-10-16T19:24:39.661Z,18.71
2018-10-16T19:25:39.593Z,18.74
2018-10-16T19:26:39.484Z,18.84
2018-10-16T19:27:39.557Z,18.86
2018-10-16T19:28:39.352Z,18.71
2018-10-16T19:29:39.304Z,18.69
2018-10-16T19:30:39.145Z,18.72
2018-10-16T19:31:39.106Z,18.60
2018-10-16T19:32:38.980Z,18.60
2018-10-16T19:33:38.961Z,18.60
2018-10-16T19:34:38.836Z,18.65
2018-10-16T19:35:38.832Z,18.72
2018-10-16T19:36:38.654Z,18.75
2018-10-16T19:37:38.656Z,18.74
2018-10-16T19:38:38.529Z,18.72
2018-10-16T19:39:38.456Z,18.76
2018-10-16T19:40:38.364Z,18.84
2018-10-16T19:41:38.365Z,18.84
2018-10-16T19:42:38.186Z,18.83
2018-10-16T19:43:38.214Z,18.87
2018-10-16T19:44:38.040Z,18.74
2018-10-16T19:45:38.041Z,18.75
2018-10-16T19:46:37.876Z,18.76
2018-10-16T19:47:37.906Z,18.68
2018-10-16T19:48:37.739Z,18.69
2018-10-16T19:49:37.733Z,18.78
2018-10-16T19:50:37.631Z,18.69
2018-10-16T19:51:37.513Z,18.78
2018-10-16T19:52:37.375Z,18.84
2018-10-16T19:53:37.352Z,18.87
2018-10-16T19:54:37.240Z,18.84
2018-10-16T19:55:37.226Z,18.74
2018-10-16T19:56:37.059Z,18.78
2018-10-16T19:57:37.027Z,18.76
2018-10-16T19:58:36.912Z,18.89
2018-10-16T19:59:36.915Z,18.82
2018-10-16T20:00:36.775Z,18.84
2018-10-16T20:01:36.824Z,18.79
2018-10-16T20:02:36.575Z,18.71
2018-10-16T20:03:37.631Z,18.72
2018-10-16T20:04:36.427Z,18.64
2018-10-16T20:05:36.435Z,18.65
2018-10-16T20:06:36.261Z,18.60
2018-10-16T20:07:36.299Z,18.54
2018-10-16T20:08:36.181Z,18.54
2018-10-16T20:09:36.153Z,18.54
2018-10-16T20:10:35.989Z,18.51
2018-10-16T20:11:35.909Z,18.41
2018-10-16T20:12:35.789Z,18.36
2018-10-16T20:13:35.832Z,18.38
2018-10-16T20:14:35.685Z,18.32
2018-10-16T20:15:35.663Z,18.36
2018-10-16T20:16:35.482Z,18.32
2018-10-16T20:17:35.462Z,18.32
2018-10-16T20:18:35.298Z,18.41
2018-10-16T20:19:35.355Z,18.36
2018-10-16T20:20:35.134Z,18.39
2018-10-16T20:21:35.191Z,18.53
2018-10-16T20:22:34.985Z,18.59
2018-10-16T20:23:35.014Z,18.57
2018-10-16T20:24:34.895Z,18.56
2018-10-16T20:25:34.861Z,18.68
2018-10-16T20:26:34.679Z,18.65
2018-10-16T20:27:34.675Z,18.64
2018-10-16T20:28:34.483Z,18.62
2018-10-16T20:29:34.490Z,18.74
2018-10-16T20:30:34.362Z,18.68
2018-10-16T20:31:34.343Z,18.72
2018-10-16T20:32:34.188Z,18.79
2018-10-16T20:33:34.237Z,18.89
2018-10-16T20:34:34.005Z,18.97
2018-10-16T20:35:34.060Z,19.12
2018-10-16T20:36:33.966Z,19.06
2018-10-16T20:37:33.830Z,19.10
2018-10-16T20:38:33.712Z,19.09
2018-10-16T20:39:33.630Z,19.15
2018-10-16T20:40:33.553Z,19.12
2018-10-16T20:41:33.533Z,19.12
2018-10-16T20:42:33.403Z,19.10
2018-10-16T20:43:33.305Z,19.07
2018-10-16T20:44:33.215Z,18.99
2018-10-16T20:45:33.152Z,18.91
2018-10-16T20:46:33.087Z,18.90
2018-10-16T20:47:33.030Z,18.96
2018-10-16T20:48:32.893Z,18.90
2018-10-16T20:49:32.848Z,18.90
2018-10-16T20:50:32.752Z,18.87
2018-10-16T20:51:32.656Z,18.86
2018-10-16T20:52:32.601Z,18.76
2018-10-16T20:53:32.515Z,18.69
2018-10-16T20:54:32.428Z,18.76
2018-10-16T20:55:32.340Z,18.72
2018-10-16T20:56:32.350Z,18.64
2018-10-16T20:57:32.253Z,18.69
2018-10-16T20:58:32.096Z,18.74
2018-10-16T20:59:32.030Z,18.74
2018-10-16T21:00:31.929Z,18.71
2018-10-16T21:03:14.309Z,18.84
2018-10-16T21:05:56.385Z,18.72
2018-10-16T21:06:56.245Z,18.68
2018-10-16T21:07:56.076Z,18.71
2018-10-16T21:08:56.006Z,18.57
2018-10-16T21:09:55.914Z,18.51
2018-10-16T21:10:55.828Z,18.54
2018-10-16T21:11:55.754Z,18.44